sensor_id;sensor_type;location;lat;lon;timestamp;pressure;altitude;pressure_sealevel;temperature
75822;BMP180;64454;51.984;9.838;2023-07-31T00:00:25;99682.00;;;17.20
75822;BMP180;64454;51.984;9.838;2023-07-31T00:02:53;99681.00;;;17.30
75822;BMP180;64454;51.984;9.838;2023-07-31T00:05:21;99685.00;;;17.30
75822;BMP180;64454;51.984;9.838;2023-07-31T00:07:48;99673.00;;;17.20
75822;BMP180;64454;51.984;9.838;2023-07-31T00:10:17;99675.00;;;17.00
75822;BMP180;64454;51.984;9.838;2023-07-31T00:12:45;99669.00;;;17.10
75822;BMP180;64454;51.984;9.838;2023-07-31T00:15:13;99677.00;;;17.00
75822;BMP180;64454;51.984;9.838;2023-07-31T00:17:40;99678.00;;;17.10
75822;BMP180;64454;51.984;9.838;2023-07-31T00:20:09;99670.00;;;17.20
75822;BMP180;64454;51.984;9.838;2023-07-31T00:22:36;99670.00;;;17.10
75822;BMP180;64454;51.984;9.838;2023-07-31T00:25:04;99665.00;;;16.70
75822;BMP180;64454;51.984;9.838;2023-07-31T00:27:33;99668.00;;;17.00
75822;BMP180;64454;51.984;9.838;2023-07-31T00:30:00;99662.00;;;17.00
75822;BMP180;64454;51.984;9.838;2023-07-31T00:32:27;99649.00;;;16.90
75822;BMP180;64454;51.984;9.838;2023-07-31T00:34:54;99657.00;;;16.80
75822;BMP180;64454;51.984;9.838;2023-07-31T00:37:21;99661.00;;;16.70
75822;BMP180;64454;51.984;9.838;2023-07-31T00:39:48;99647.00;;;16.70
75822;BMP180;64454;51.984;9.838;2023-07-31T00:42:15;99644.00;;;16.80
75822;BMP180;64454;51.984;9.838;2023-07-31T00:44:44;99647.00;;;16.70
75822;BMP180;64454;51.984;9.838;2023-07-31T00:47:11;99641.00;;;16.70
75822;BMP180;64454;51.984;9.838;2023-07-31T00:49:38;99641.00;;;16.60
75822;BMP180;64454;51.984;9.838;2023-07-31T00:52:06;99641.00;;;16.90
75822;BMP180;64454;51.984;9.838;2023-07-31T00:54:34;99639.00;;;16.50
75822;BMP180;64454;51.984;9.838;2023-07-31T00:57:01;99637.00;;;16.40
75822;BMP180;64454;51.984;9.838;2023-07-31T00:59:27;99621.00;;;16.40
75822;BMP180;64454;51.984;9.838;2023-07-31T01:01:56;99627.00;;;16.60
75822;BMP180;64454;51.984;9.838;2023-07-31T01:04:23;99622.00;;;16.80
75822;BMP180;64454;51.984;9.838;2023-07-31T01:06:59;99618.00;;;16.80
75822;BMP180;64454;51.984;9.838;2023-07-31T01:09:46;99614.00;;;16.90
75822;BMP180;64454;51.984;9.838;2023-07-31T01:12:16;99610.00;;;16.50
75822;BMP180;64454;51.984;9.838;2023-07-31T01:14:52;99613.00;;;16.60
75822;BMP180;64454;51.984;9.838;2023-07-31T01:17:36;99605.00;;;16.60
75822;BMP180;64454;51.984;9.838;2023-07-31T01:20:09;99598.00;;;16.50
75822;BMP180;64454;51.984;9.838;2023-07-31T01:23:11;99600.00;;;16.60
75822;BMP180;64454;51.984;9.838;2023-07-31T01:26:05;99593.00;;;16.20
75822;BMP180;64454;51.984;9.838;2023-07-31T01:28:46;99584.00;;;16.30
75822;BMP180;64454;51.984;9.838;2023-07-31T01:31:20;99578.00;;;16.30
75822;BMP180;64454;51.984;9.838;2023-07-31T01:33:48;99577.00;;;16.20
75822;BMP180;64454;51.984;9.838;2023-07-31T01:36:16;99574.00;;;16.10
75822;BMP180;64454;51.984;9.838;2023-07-31T01:38:43;99574.00;;;16.10
75822;BMP180;64454;51.984;9.838;2023-07-31T01:41:11;99573.00;;;16.20
75822;BMP180;64454;51.984;9.838;2023-07-31T01:43:39;99567.00;;;16.20
75822;BMP180;64454;51.984;9.838;2023-07-31T01:46:05;99557.00;;;16.20
75822;BMP180;64454;51.984;9.838;2023-07-31T01:48:32;99565.00;;;16.40
75822;BMP180;64454;51.984;9.838;2023-07-31T01:51:03;99555.00;;;16.10
75822;BMP180;64454;51.984;9.838;2023-07-31T01:53:31;99564.00;;;16.30
75822;BMP180;64454;51.984;9.838;2023-07-31T01:55:58;99556.00;;;16.00
75822;BMP180;64454;51.984;9.838;2023-07-31T01:58:26;99550.00;;;16.30
75822;BMP180;64454;51.984;9.838;2023-07-31T02:00:53;99551.00;;;16.30
75822;BMP180;64454;51.984;9.838;2023-07-31T02:03:20;99552.00;;;16.10
75822;BMP180;64454;51.984;9.838;2023-07-31T02:05:48;99540.00;;;16.20
75822;BMP180;64454;51.984;9.838;2023-07-31T02:08:16;99538.00;;;16.10
75822;BMP180;64454;51.984;9.838;2023-07-31T02:10:43;99542.00;;;16.30
75822;BMP180;64454;51.984;9.838;2023-07-31T02:13:10;99533.00;;;16.20
75822;BMP180;64454;51.984;9.838;2023-07-31T02:15:38;99534.00;;;16.10
75822;BMP180;64454;51.984;9.838;2023-07-31T02:18:05;99532.00;;;16.00
75822;BMP180;64454;51.984;9.838;2023-07-31T02:20:34;99529.00;;;16.30
75822;BMP180;64454;51.984;9.838;2023-07-31T02:23:02;99528.00;;;16.40
75822;BMP180;64454;51.984;9.838;2023-07-31T02:25:29;99527.00;;;16.40
75822;BMP180;64454;51.984;9.838;2023-07-31T02:27:56;99520.00;;;16.40
75822;BMP180;64454;51.984;9.838;2023-07-31T02:30:23;99522.00;;;16.60
75822;BMP180;64454;51.984;9.838;2023-07-31T02:32:51;99517.00;;;16.60
75822;BMP180;64454;51.984;9.838;2023-07-31T02:35:18;99516.00;;;16.50
75822;BMP180;64454;51.984;9.838;2023-07-31T02:37:45;99518.00;;;16.30
75822;BMP180;64454;51.984;9.838;2023-07-31T02:40:13;99517.00;;;16.60
75822;BMP180;64454;51.984;9.838;2023-07-31T02:42:40;99525.00;;;16.60
75822;BMP180;64454;51.984;9.838;2023-07-31T02:45:08;99519.00;;;16.30
75822;BMP180;64454;51.984;9.838;2023-07-31T02:47:35;99519.00;;;16.40
75822;BMP180;64454;51.984;9.838;2023-07-31T02:50:04;99521.00;;;16.50
75822;BMP180;64454;51.984;9.838;2023-07-31T02:52:32;99524.00;;;16.40
75822;BMP180;64454;51.984;9.838;2023-07-31T02:54:59;99530.00;;;16.60
75822;BMP180;64454;51.984;9.838;2023-07-31T02:57:26;99522.00;;;16.40
75822;BMP180;64454;51.984;9.838;2023-07-31T02:59:52;99531.00;;;16.70
75822;BMP180;64454;51.984;9.838;2023-07-31T03:02:19;99524.00;;;16.90
75822;BMP180;64454;51.984;9.838;2023-07-31T03:04:46;99529.00;;;16.40
75822;BMP180;64454;51.984;9.838;2023-07-31T03:07:15;99524.00;;;16.70
75822;BMP180;64454;51.984;9.838;2023-07-31T03:09:42;99524.00;;;17.10
75822;BMP180;64454;51.984;9.838;2023-07-31T03:12:09;99528.00;;;16.90
75822;BMP180;64454;51.984;9.838;2023-07-31T03:14:36;99523.00;;;16.60
75822;BMP180;64454;51.984;9.838;2023-07-31T03:17:03;99531.00;;;16.90
75822;BMP180;64454;51.984;9.838;2023-07-31T03:19:31;99518.00;;;16.80
75822;BMP180;64454;51.984;9.838;2023-07-31T03:21:58;99519.00;;;17.10
75822;BMP180;64454;51.984;9.838;2023-07-31T03:24:28;99520.00;;;17.00
75822;BMP180;64454;51.984;9.838;2023-07-31T03:26:55;99527.00;;;16.80
75822;BMP180;64454;51.984;9.838;2023-07-31T03:29:22;99515.00;;;16.50
75822;BMP180;64454;51.984;9.838;2023-07-31T03:31:49;99526.00;;;16.50
75822;BMP180;64454;51.984;9.838;2023-07-31T03:34:18;99527.00;;;16.70
75822;BMP180;64454;51.984;9.838;2023-07-31T03:36:46;99514.00;;;16.60
75822;BMP180;64454;51.984;9.838;2023-07-31T03:39:13;99520.00;;;16.40
75822;BMP180;64454;51.984;9.838;2023-07-31T03:41:42;99516.00;;;16.20
75822;BMP180;64454;51.984;9.838;2023-07-31T03:44:09;99516.00;;;16.10
75822;BMP180;64454;51.984;9.838;2023-07-31T03:46:36;99515.00;;;16.10
75822;BMP180;64454;51.984;9.838;2023-07-31T03:49:03;99515.00;;;16.10
75822;BMP180;64454;51.984;9.838;2023-07-31T03:51:30;99525.00;;;16.10
75822;BMP180;64454;51.984;9.838;2023-07-31T03:53:57;99521.00;;;16.00
75822;BMP180;64454;51.984;9.838;2023-07-31T03:56:24;99518.00;;;15.90
75822;BMP180;64454;51.984;9.838;2023-07-31T03:58:53;99517.00;;;15.90
75822;BMP180;64454;51.984;9.838;2023-07-31T04:01:20;99508.00;;;15.70
75822;BMP180;64454;51.984;9.838;2023-07-31T04:03:47;99517.00;;;16.00
75822;BMP180;64454;51.984;9.838;2023-07-31T04:06:14;99518.00;;;15.90
75822;BMP180;64454;51.984;9.838;2023-07-31T04:08:43;99517.00;;;16.00
75822;BMP180;64454;51.984;9.838;2023-07-31T04:11:10;99515.00;;;16.20
75822;BMP180;64454;51.984;9.838;2023-07-31T04:13:38;99513.00;;;16.00
75822;BMP180;64454;51.984;9.838;2023-07-31T04:16:06;99500.00;;;15.90
75822;BMP180;64454;51.984;9.838;2023-07-31T04:18:33;99503.00;;;16.00
75822;BMP180;64454;51.984;9.838;2023-07-31T04:21:00;99506.00;;;16.00
75822;BMP180;64454;51.984;9.838;2023-07-31T04:23:28;99511.00;;;16.00
75822;BMP180;64454;51.984;9.838;2023-07-31T04:25:55;99511.00;;;15.90
75822;BMP180;64454;51.984;9.838;2023-07-31T04:28:22;99518.00;;;15.90
75822;BMP180;64454;51.984;9.838;2023-07-31T04:30:51;99505.00;;;16.00
75822;BMP180;64454;51.984;9.838;2023-07-31T04:33:19;99504.00;;;16.10
75822;BMP180;64454;51.984;9.838;2023-07-31T04:35:50;99513.00;;;16.10
75822;BMP180;64454;51.984;9.838;2023-07-31T04:38:18;99509.00;;;16.20
75822;BMP180;64454;51.984;9.838;2023-07-31T04:40:46;99503.00;;;16.10
75822;BMP180;64454;51.984;9.838;2023-07-31T04:43:13;99510.00;;;16.30
75822;BMP180;64454;51.984;9.838;2023-07-31T04:45:45;99506.00;;;16.40
75822;BMP180;64454;51.984;9.838;2023-07-31T04:48:12;99515.00;;;16.60
75822;BMP180;64454;51.984;9.838;2023-07-31T04:50:41;99522.00;;;16.70
75822;BMP180;64454;51.984;9.838;2023-07-31T04:53:08;99506.00;;;16.50
75822;BMP180;64454;51.984;9.838;2023-07-31T04:55:35;99507.00;;;16.70
75822;BMP180;64454;51.984;9.838;2023-07-31T04:58:02;99500.00;;;16.50
75822;BMP180;64454;51.984;9.838;2023-07-31T05:00:29;99497.00;;;16.70
75822;BMP180;64454;51.984;9.838;2023-07-31T05:02:56;99498.00;;;16.90
75822;BMP180;64454;51.984;9.838;2023-07-31T05:05:23;99507.00;;;16.70
75822;BMP180;64454;51.984;9.838;2023-07-31T05:07:51;99504.00;;;16.60
75822;BMP180;64454;51.984;9.838;2023-07-31T05:10:18;99503.00;;;17.10
75822;BMP180;64454;51.984;9.838;2023-07-31T05:12:45;99502.00;;;17.00
75822;BMP180;64454;51.984;9.838;2023-07-31T05:15:12;99495.00;;;17.00
75822;BMP180;64454;51.984;9.838;2023-07-31T05:17:39;99500.00;;;16.70
75822;BMP180;64454;51.984;9.838;2023-07-31T05:20:07;99499.00;;;16.80
75822;BMP180;64454;51.984;9.838;2023-07-31T05:22:34;99501.00;;;17.10
75822;BMP180;64454;51.984;9.838;2023-07-31T05:25:03;99506.00;;;17.00
75822;BMP180;64454;51.984;9.838;2023-07-31T05:27:31;99508.00;;;17.10
75822;BMP180;64454;51.984;9.838;2023-07-31T05:29:59;99504.00;;;16.70
75822;BMP180;64454;51.984;9.838;2023-07-31T05:32:26;99511.00;;;16.70
75822;BMP180;64454;51.984;9.838;2023-07-31T05:34:53;99510.00;;;16.80
75822;BMP180;64454;51.984;9.838;2023-07-31T05:37:20;99503.00;;;17.00
75822;BMP180;64454;51.984;9.838;2023-07-31T05:39:47;99519.00;;;16.60
75822;BMP180;64454;51.984;9.838;2023-07-31T05:42:15;99515.00;;;16.90
75822;BMP180;64454;51.984;9.838;2023-07-31T05:44:42;99518.00;;;17.10
75822;BMP180;64454;51.984;9.838;2023-07-31T05:47:10;99522.00;;;17.00
75822;BMP180;64454;51.984;9.838;2023-07-31T05:49:36;99518.00;;;16.70
75822;BMP180;64454;51.984;9.838;2023-07-31T05:52:04;99509.00;;;16.80
75822;BMP180;64454;51.984;9.838;2023-07-31T05:54:32;99511.00;;;16.70
75822;BMP180;64454;51.984;9.838;2023-07-31T05:56:59;99515.00;;;16.50
75822;BMP180;64454;51.984;9.838;2023-07-31T05:59:27;99510.00;;;16.70
75822;BMP180;64454;51.984;9.838;2023-07-31T06:01:55;99507.00;;;16.70
75822;BMP180;64454;51.984;9.838;2023-07-31T06:04:22;99492.00;;;16.50
75822;BMP180;64454;51.984;9.838;2023-07-31T06:06:51;99497.00;;;16.70
75822;BMP180;64454;51.984;9.838;2023-07-31T06:09:20;99489.00;;;16.80
75822;BMP180;64454;51.984;9.838;2023-07-31T06:11:47;99492.00;;;17.10
75822;BMP180;64454;51.984;9.838;2023-07-31T06:14:16;99493.00;;;16.90
75822;BMP180;64454;51.984;9.838;2023-07-31T06:16:45;99490.00;;;16.80
75822;BMP180;64454;51.984;9.838;2023-07-31T06:19:12;99505.00;;;17.00
75822;BMP180;64454;51.984;9.838;2023-07-31T06:21:40;99494.00;;;17.10
75822;BMP180;64454;51.984;9.838;2023-07-31T06:24:08;99494.00;;;17.00
75822;BMP180;64454;51.984;9.838;2023-07-31T06:26:35;99489.00;;;17.20
75822;BMP180;64454;51.984;9.838;2023-07-31T06:29:02;99501.00;;;17.10
75822;BMP180;64454;51.984;9.838;2023-07-31T06:31:29;99497.00;;;17.00
75822;BMP180;64454;51.984;9.838;2023-07-31T06:33:57;99506.00;;;17.00
75822;BMP180;64454;51.984;9.838;2023-07-31T06:36:24;99506.00;;;17.10
75822;BMP180;64454;51.984;9.838;2023-07-31T06:38:51;99495.00;;;17.10
75822;BMP180;64454;51.984;9.838;2023-07-31T06:41:18;99500.00;;;17.30
75822;BMP180;64454;51.984;9.838;2023-07-31T06:43:45;99502.00;;;17.40
75822;BMP180;64454;51.984;9.838;2023-07-31T06:46:12;99494.00;;;17.50
75822;BMP180;64454;51.984;9.838;2023-07-31T06:48:39;99502.00;;;17.60
75822;BMP180;64454;51.984;9.838;2023-07-31T06:51:07;99496.00;;;17.50
75822;BMP180;64454;51.984;9.838;2023-07-31T06:53:34;99496.00;;;17.50
75822;BMP180;64454;51.984;9.838;2023-07-31T06:56:01;99497.00;;;17.60
75822;BMP180;64454;51.984;9.838;2023-07-31T06:58:28;99494.00;;;17.60
75822;BMP180;64454;51.984;9.838;2023-07-31T07:00:55;99492.00;;;17.60
75822;BMP180;64454;51.984;9.838;2023-07-31T07:03:21;99485.00;;;17.40
75822;BMP180;64454;51.984;9.838;2023-07-31T07:05:48;99475.00;;;17.50
75822;BMP180;64454;51.984;9.838;2023-07-31T07:08:16;99486.00;;;17.30
75822;BMP180;64454;51.984;9.838;2023-07-31T07:10:43;99484.00;;;17.70
75822;BMP180;64454;51.984;9.838;2023-07-31T07:13:10;99483.00;;;17.70
75822;BMP180;64454;51.984;9.838;2023-07-31T07:15:38;99476.00;;;18.10
75822;BMP180;64454;51.984;9.838;2023-07-31T07:18:05;99476.00;;;18.10
75822;BMP180;64454;51.984;9.838;2023-07-31T07:20:32;99470.00;;;17.90
75822;BMP180;64454;51.984;9.838;2023-07-31T07:22:58;99474.00;;;18.10
75822;BMP180;64454;51.984;9.838;2023-07-31T07:25:27;99472.00;;;18.00
75822;BMP180;64454;51.984;9.838;2023-07-31T07:27:54;99464.00;;;18.10
75822;BMP180;64454;51.984;9.838;2023-07-31T07:30:20;99456.00;;;18.40
75822;BMP180;64454;51.984;9.838;2023-07-31T07:32:49;99456.00;;;18.30
75822;BMP180;64454;51.984;9.838;2023-07-31T07:35:16;99465.00;;;18.10
75822;BMP180;64454;51.984;9.838;2023-07-31T07:37:43;99464.00;;;18.10
75822;BMP180;64454;51.984;9.838;2023-07-31T07:40:10;99461.00;;;18.00
75822;BMP180;64454;51.984;9.838;2023-07-31T07:42:38;99470.00;;;18.00
75822;BMP180;64454;51.984;9.838;2023-07-31T07:45:07;99468.00;;;18.00
75822;BMP180;64454;51.984;9.838;2023-07-31T07:47:34;99471.00;;;18.10
75822;BMP180;64454;51.984;9.838;2023-07-31T07:50:01;99458.00;;;17.80
75822;BMP180;64454;51.984;9.838;2023-07-31T07:52:28;99456.00;;;17.90
75822;BMP180;64454;51.984;9.838;2023-07-31T07:54:55;99464.00;;;17.70
75822;BMP180;64454;51.984;9.838;2023-07-31T07:57:22;99468.00;;;17.50
75822;BMP180;64454;51.984;9.838;2023-07-31T07:59:50;99471.00;;;17.90
75822;BMP180;64454;51.984;9.838;2023-07-31T08:02:17;99469.00;;;18.10
75822;BMP180;64454;51.984;9.838;2023-07-31T08:04:44;99482.00;;;18.00
75822;BMP180;64454;51.984;9.838;2023-07-31T08:07:11;99478.00;;;17.50
75822;BMP180;64454;51.984;9.838;2023-07-31T08:09:38;99477.00;;;18.00
75822;BMP180;64454;51.984;9.838;2023-07-31T08:12:06;99472.00;;;18.00
75822;BMP180;64454;51.984;9.838;2023-07-31T08:14:33;99469.00;;;17.70
75822;BMP180;64454;51.984;9.838;2023-07-31T08:17:03;99475.00;;;17.90
75822;BMP180;64454;51.984;9.838;2023-07-31T08:19:30;99486.00;;;17.90
75822;BMP180;64454;51.984;9.838;2023-07-31T08:21:57;99484.00;;;17.50
75822;BMP180;64454;51.984;9.838;2023-07-31T08:24:24;99472.00;;;17.50
75822;BMP180;64454;51.984;9.838;2023-07-31T08:26:51;99475.00;;;17.90
75822;BMP180;64454;51.984;9.838;2023-07-31T08:29:20;99478.00;;;18.00
75822;BMP180;64454;51.984;9.838;2023-07-31T08:31:47;99480.00;;;17.90
75822;BMP180;64454;51.984;9.838;2023-07-31T08:34:17;99473.00;;;17.40
75822;BMP180;64454;51.984;9.838;2023-07-31T08:36:45;99471.00;;;17.80
75822;BMP180;64454;51.984;9.838;2023-07-31T08:39:12;99468.00;;;17.90
75822;BMP180;64454;51.984;9.838;2023-07-31T08:41:39;99461.00;;;18.20
75822;BMP180;64454;51.984;9.838;2023-07-31T08:44:07;99460.00;;;17.60
75822;BMP180;64454;51.984;9.838;2023-07-31T08:46:35;99468.00;;;17.70
75822;BMP180;64454;51.984;9.838;2023-07-31T08:49:05;99451.00;;;17.80
75822;BMP180;64454;51.984;9.838;2023-07-31T08:51:34;99434.00;;;17.50
75822;BMP180;64454;51.984;9.838;2023-07-31T08:54:02;99436.00;;;17.30
75822;BMP180;64454;51.984;9.838;2023-07-31T08:56:32;99435.00;;;17.20
75822;BMP180;64454;51.984;9.838;2023-07-31T08:59:02;99438.00;;;17.40
75822;BMP180;64454;51.984;9.838;2023-07-31T09:01:33;99441.00;;;17.10
75822;BMP180;64454;51.984;9.838;2023-07-31T09:04:05;99445.00;;;17.20
75822;BMP180;64454;51.984;9.838;2023-07-31T09:06:34;99443.00;;;17.50
75822;BMP180;64454;51.984;9.838;2023-07-31T09:09:02;99438.00;;;17.30
75822;BMP180;64454;51.984;9.838;2023-07-31T09:11:29;99439.00;;;17.70
75822;BMP180;64454;51.984;9.838;2023-07-31T09:13:57;99415.00;;;17.50
75822;BMP180;64454;51.984;9.838;2023-07-31T09:16:28;99412.00;;;17.30
75822;BMP180;64454;51.984;9.838;2023-07-31T09:18:57;99408.00;;;17.10
75822;BMP180;64454;51.984;9.838;2023-07-31T09:21:27;99414.00;;;17.30
75822;BMP180;64454;51.984;9.838;2023-07-31T09:23:55;99423.00;;;17.30
75822;BMP180;64454;51.984;9.838;2023-07-31T09:26:30;99419.00;;;17.50
75822;BMP180;64454;51.984;9.838;2023-07-31T09:28:57;99422.00;;;17.80
75822;BMP180;64454;51.984;9.838;2023-07-31T09:31:39;99413.00;;;17.90
75822;BMP180;64454;51.984;9.838;2023-07-31T09:34:07;99413.00;;;17.90
75822;BMP180;64454;51.984;9.838;2023-07-31T09:36:40;99402.00;;;17.90
75822;BMP180;64454;51.984;9.838;2023-07-31T09:39:11;99398.00;;;18.00
75822;BMP180;64454;51.984;9.838;2023-07-31T09:41:39;99398.00;;;18.00
75822;BMP180;64454;51.984;9.838;2023-07-31T09:44:07;99390.00;;;18.10
75822;BMP180;64454;51.984;9.838;2023-07-31T09:46:35;99382.00;;;18.00
75822;BMP180;64454;51.984;9.838;2023-07-31T09:49:08;99382.00;;;18.50
75822;BMP180;64454;51.984;9.838;2023-07-31T09:51:36;99378.00;;;18.10
75822;BMP180;64454;51.984;9.838;2023-07-31T09:54:10;99381.00;;;18.40
75822;BMP180;64454;51.984;9.838;2023-07-31T09:56:44;99370.00;;;18.60
75822;BMP180;64454;51.984;9.838;2023-07-31T09:59:14;99365.00;;;18.40
75822;BMP180;64454;51.984;9.838;2023-07-31T10:01:44;99371.00;;;18.90
75822;BMP180;64454;51.984;9.838;2023-07-31T10:04:13;99371.00;;;18.60
75822;BMP180;64454;51.984;9.838;2023-07-31T10:06:43;99364.00;;;18.60
75822;BMP180;64454;51.984;9.838;2023-07-31T10:09:16;99363.00;;;18.80
75822;BMP180;64454;51.984;9.838;2023-07-31T10:11:51;99372.00;;;18.80
75822;BMP180;64454;51.984;9.838;2023-07-31T10:14:23;99374.00;;;19.00
75822;BMP180;64454;51.984;9.838;2023-07-31T10:16:51;99359.00;;;19.30
75822;BMP180;64454;51.984;9.838;2023-07-31T10:19:21;99351.00;;;19.50
75822;BMP180;64454;51.984;9.838;2023-07-31T10:21:49;99351.00;;;20.10
75822;BMP180;64454;51.984;9.838;2023-07-31T10:24:20;99341.00;;;20.50
75822;BMP180;64454;51.984;9.838;2023-07-31T10:26:49;99339.00;;;19.90
75822;BMP180;64454;51.984;9.838;2023-07-31T10:29:21;99360.00;;;20.00
75822;BMP180;64454;51.984;9.838;2023-07-31T10:31:51;99351.00;;;20.00
75822;BMP180;64454;51.984;9.838;2023-07-31T10:34:20;99366.00;;;20.30
75822;BMP180;64454;51.984;9.838;2023-07-31T10:36:47;99348.00;;;19.80
75822;BMP180;64454;51.984;9.838;2023-07-31T10:39:35;99353.00;;;19.70
75822;BMP180;64454;51.984;9.838;2023-07-31T10:42:11;99342.00;;;20.10
75822;BMP180;64454;51.984;9.838;2023-07-31T10:44:43;99348.00;;;20.30
75822;BMP180;64454;51.984;9.838;2023-07-31T10:47:14;99343.00;;;20.10
75822;BMP180;64454;51.984;9.838;2023-07-31T10:49:45;99330.00;;;20.00
75822;BMP180;64454;51.984;9.838;2023-07-31T10:52:13;99339.00;;;20.10
75822;BMP180;64454;51.984;9.838;2023-07-31T10:54:42;99325.00;;;20.50
75822;BMP180;64454;51.984;9.838;2023-07-31T10:57:20;99326.00;;;20.90
75822;BMP180;64454;51.984;9.838;2023-07-31T10:59:48;99326.00;;;21.40
75822;BMP180;64454;51.984;9.838;2023-07-31T11:02:26;99328.00;;;21.80
75822;BMP180;64454;51.984;9.838;2023-07-31T11:05:08;99319.00;;;20.90
75822;BMP180;64454;51.984;9.838;2023-07-31T11:07:49;99312.00;;;21.10
75822;BMP180;64454;51.984;9.838;2023-07-31T11:10:22;99320.00;;;21.00
75822;BMP180;64454;51.984;9.838;2023-07-31T11:12:51;99324.00;;;21.50
75822;BMP180;64454;51.984;9.838;2023-07-31T11:15:18;99325.00;;;22.00
75822;BMP180;64454;51.984;9.838;2023-07-31T11:17:45;99323.00;;;21.80
75822;BMP180;64454;51.984;9.838;2023-07-31T11:20:12;99321.00;;;21.90
75822;BMP180;64454;51.984;9.838;2023-07-31T11:22:39;99319.00;;;22.10
75822;BMP180;64454;51.984;9.838;2023-07-31T11:25:08;99329.00;;;22.20
75822;BMP180;64454;51.984;9.838;2023-07-31T11:27:40;99330.00;;;22.00
75822;BMP180;64454;51.984;9.838;2023-07-31T11:30:08;99331.00;;;22.00
75822;BMP180;64454;51.984;9.838;2023-07-31T11:32:36;99334.00;;;21.50
75822;BMP180;64454;51.984;9.838;2023-07-31T11:35:04;99328.00;;;20.90
75822;BMP180;64454;51.984;9.838;2023-07-31T11:37:40;99339.00;;;20.80
75822;BMP180;64454;51.984;9.838;2023-07-31T11:40:09;99348.00;;;20.10
75822;BMP180;64454;51.984;9.838;2023-07-31T11:42:36;99347.00;;;19.40
75822;BMP180;64454;51.984;9.838;2023-07-31T11:45:06;99329.00;;;20.00
75822;BMP180;64454;51.984;9.838;2023-07-31T11:47:35;99359.00;;;20.20
75822;BMP180;64454;51.984;9.838;2023-07-31T11:50:04;99334.00;;;20.30
75822;BMP180;64454;51.984;9.838;2023-07-31T11:52:37;99328.00;;;20.50
75822;BMP180;64454;51.984;9.838;2023-07-31T11:55:08;99319.00;;;20.10
75822;BMP180;64454;51.984;9.838;2023-07-31T11:57:38;99326.00;;;20.40
75822;BMP180;64454;51.984;9.838;2023-07-31T12:00:10;99326.00;;;20.20
75822;BMP180;64454;51.984;9.838;2023-07-31T12:02:39;99320.00;;;19.90
75822;BMP180;64454;51.984;9.838;2023-07-31T12:05:10;99328.00;;;20.20
75822;BMP180;64454;51.984;9.838;2023-07-31T12:07:48;99316.00;;;19.70
75822;BMP180;64454;51.984;9.838;2023-07-31T12:10:29;99319.00;;;19.90
75822;BMP180;64454;51.984;9.838;2023-07-31T12:13:03;99317.00;;;20.30
75822;BMP180;64454;51.984;9.838;2023-07-31T12:15:43;99316.00;;;19.60
75822;BMP180;64454;51.984;9.838;2023-07-31T12:18:12;99309.00;;;20.00
75822;BMP180;64454;51.984;9.838;2023-07-31T12:20:44;99315.00;;;20.00
75822;BMP180;64454;51.984;9.838;2023-07-31T12:23:15;99311.00;;;20.10
75822;BMP180;64454;51.984;9.838;2023-07-31T12:25:43;99313.00;;;19.60
75822;BMP180;64454;51.984;9.838;2023-07-31T12:28:10;99313.00;;;19.90
75822;BMP180;64454;51.984;9.838;2023-07-31T12:30:40;99313.00;;;19.70
75822;BMP180;64454;51.984;9.838;2023-07-31T12:33:13;99310.00;;;19.70
75822;BMP180;64454;51.984;9.838;2023-07-31T12:35:44;99320.00;;;20.30
75822;BMP180;64454;51.984;9.838;2023-07-31T12:38:11;99320.00;;;20.30
75822;BMP180;64454;51.984;9.838;2023-07-31T12:40:40;99315.00;;;19.50
75822;BMP180;64454;51.984;9.838;2023-07-31T12:43:07;99311.00;;;19.80
75822;BMP180;64454;51.984;9.838;2023-07-31T12:45:35;99313.00;;;19.40
75822;BMP180;64454;51.984;9.838;2023-07-31T12:48:03;99309.00;;;18.80
75822;BMP180;64454;51.984;9.838;2023-07-31T12:50:30;99308.00;;;18.80
75822;BMP180;64454;51.984;9.838;2023-07-31T12:52:57;99314.00;;;19.10
75822;BMP180;64454;51.984;9.838;2023-07-31T12:55:24;99316.00;;;19.00
75822;BMP180;64454;51.984;9.838;2023-07-31T12:57:51;99310.00;;;19.00
75822;BMP180;64454;51.984;9.838;2023-07-31T13:00:18;99305.00;;;19.60
75822;BMP180;64454;51.984;9.838;2023-07-31T13:02:45;99293.00;;;19.20
75822;BMP180;64454;51.984;9.838;2023-07-31T13:05:14;99306.00;;;19.10
75822;BMP180;64454;51.984;9.838;2023-07-31T13:07:41;99292.00;;;19.20
75822;BMP180;64454;51.984;9.838;2023-07-31T13:10:09;99295.00;;;19.10
75822;BMP180;64454;51.984;9.838;2023-07-31T13:12:36;99294.00;;;19.40
75822;BMP180;64454;51.984;9.838;2023-07-31T13:15:03;99292.00;;;19.60
75822;BMP180;64454;51.984;9.838;2023-07-31T13:17:30;99289.00;;;19.30
75822;BMP180;64454;51.984;9.838;2023-07-31T13:19:58;99295.00;;;19.50
75822;BMP180;64454;51.984;9.838;2023-07-31T13:22:27;99295.00;;;19.30
75822;BMP180;64454;51.984;9.838;2023-07-31T13:24:54;99288.00;;;19.60
75822;BMP180;64454;51.984;9.838;2023-07-31T13:27:21;99287.00;;;19.80
75822;BMP180;64454;51.984;9.838;2023-07-31T13:29:48;99296.00;;;19.50
75822;BMP180;64454;51.984;9.838;2023-07-31T13:32:16;99300.00;;;19.80
75822;BMP180;64454;51.984;9.838;2023-07-31T13:34:43;99294.00;;;19.40
75822;BMP180;64454;51.984;9.838;2023-07-31T13:37:11;99305.00;;;19.30
75822;BMP180;64454;51.984;9.838;2023-07-31T13:39:39;99291.00;;;19.40
75822;BMP180;64454;51.984;9.838;2023-07-31T13:42:08;99297.00;;;19.60
75822;BMP180;64454;51.984;9.838;2023-07-31T13:44:38;99291.00;;;19.60
75822;BMP180;64454;51.984;9.838;2023-07-31T13:47:06;99287.00;;;19.70
75822;BMP180;64454;51.984;9.838;2023-07-31T13:49:33;99284.00;;;19.70
75822;BMP180;64454;51.984;9.838;2023-07-31T13:52:00;99281.00;;;19.60
75822;BMP180;64454;51.984;9.838;2023-07-31T13:54:27;99273.00;;;19.80
75822;BMP180;64454;51.984;9.838;2023-07-31T13:56:56;99269.00;;;19.60
75822;BMP180;64454;51.984;9.838;2023-07-31T13:59:22;99259.00;;;20.20
75822;BMP180;64454;51.984;9.838;2023-07-31T14:01:50;99260.00;;;20.60
75822;BMP180;64454;51.984;9.838;2023-07-31T14:04:19;99253.00;;;21.10
75822;BMP180;64454;51.984;9.838;2023-07-31T14:06:46;99253.00;;;21.30
75822;BMP180;64454;51.984;9.838;2023-07-31T14:09:18;99256.00;;;21.00
75822;BMP180;64454;51.984;9.838;2023-07-31T14:11:46;99257.00;;;21.10
75822;BMP180;64454;51.984;9.838;2023-07-31T14:14:16;99255.00;;;20.50
75822;BMP180;64454;51.984;9.838;2023-07-31T14:16:45;99248.00;;;21.00